Konotop, Ukraine
Current Conditions -  °F | °C
As of 6:00 PM on Sunday 28 Dec 2014 (Local Time) from UKBB Reporting Station
Few Clouds Few Clouds  
Wind Chill: 19°   Ceiling: Unl
Heat Index: 19°   Visibility: 6mi
Dew Point: 14°   Wind: 2mph
Humidity: 80%   Direction: NA
Pressure: 29.94"   Gusts: NA
Location:  51.24°N, 33.21°E
Report Text: UKBB 281500Z VRB01MPS 9999 FEW032 M07/M10 Q1014 86190050 36CLRD95 NOSIG
Loading
Personal Weather Stations






























Interactive Weather Map New forecast layout! Learn more

10-Day Weather Forecast

Advertisements
Track Severe Weather on mobile